Time;durP1;ratioP1;P1;durP2;ratioP2;P2;SDS_P1;SDS_P2;PMS_P1;PMS_P2;Temp;Humidity;BMP_temperature;BMP_pressure;BME280_temperature;BME280_humidity;BME280_pressure;Samples;Min_cycle;Max_cycle;Signal;HPM_P1;HPM_P2
2023/10/22 00:01:11;;;;;;;10.98;3.90;;;;;;;19.21;67.13;98627.66;7738465;32;39607;-79
2023/10/22 00:05:28;;;;;;;10.98;4.25;;;;;;;19.00;67.89;98619.66;7738651;32;40763;-79
2023/10/22 00:09:46;;;;;;;13.25;5.28;;;;;;;19.10;67.56;98621.09;7738445;32;37572;-79
2023/10/22 00:14:02;;;;;;;11.70;4.60;;;;;;;19.02;67.28;98614.56;7738444;32;37102;-79
2023/10/22 00:18:18;;;;;;;15.43;5.18;;;;;;;19.03;67.31;98623.69;7738399;32;39411;-79
2023/10/22 00:22:35;;;;;;;16.92;6.35;;;;;;;19.11;66.99;98609.69;7738242;32;39895;-78
2023/10/22 00:26:51;;;;;;;15.35;5.65;;;;;;;19.06;67.03;98598.91;7738063;32;38043;-80
2023/10/22 00:31:07;;;;;;;15.02;6.47;;;;;;;19.12;66.59;98602.97;7738175;32;37436;-79
2023/10/22 00:35:23;;;;;;;11.38;6.28;;;;;;;19.21;66.24;98590.97;7724216;32;40045;-79
2023/10/22 00:39:43;;;;;;;18.42;7.28;;;;;;;19.14;66.42;98592.41;7738008;32;40075;-78
2023/10/22 00:43:59;;;;;;;15.82;6.65;;;;;;;19.19;66.35;98596.03;7737951;32;38163;-78
2023/10/22 00:48:17;;;;;;;18.83;6.45;;;;;;;19.06;66.50;98596.16;7733686;32;148059;-79
2023/10/22 00:52:34;;;;;;;17.67;7.47;;;;;;;19.05;66.67;98590.97;7725373;32;38385;-79
2023/10/22 00:56:51;;;;;;;18.15;7.25;;;;;;;18.74;67.74;98585.06;7739013;32;39770;-79
2023/10/22 01:01:08;;;;;;;16.37;5.82;;;;;;;18.98;66.78;98571.47;7725334;32;37949;-79
2023/10/22 01:05:26;;;;;;;13.73;6.75;;;;;;;18.91;67.06;98569.34;7739173;32;37866;-79
2023/10/22 01:09:42;;;;;;;17.42;6.95;;;;;;;18.98;66.46;98583.31;7738947;32;39215;-80
2023/10/22 01:13:59;;;;;;;12.57;6.60;;;;;;;19.03;66.07;98574.75;7738931;32;40852;-79
2023/10/22 01:18:15;;;;;;;14.18;7.22;;;;;;;18.81;67.39;98583.66;7738752;32;38250;-79
2023/10/22 01:22:35;;;;;;;12.65;6.07;;;;;;;18.84;67.12;98571.94;7738795;32;37762;-79
2023/10/22 01:26:51;;;;;;;15.57;8.18;;;;;;;18.75;67.40;98581.16;7738853;32;40232;-79
2023/10/22 01:31:16;;;;;;;18.67;8.43;;;;;;;19.03;66.55;98588.56;7738862;32;41397;-79
2023/10/22 01:35:33;;;;;;;16.80;6.93;;;;;;;18.89;66.93;98589.03;7738203;32;38656;-77
2023/10/22 01:39:49;;;;;;;11.18;6.55;;;;;;;18.93;66.98;98597.41;7738393;32;37333;-79
2023/10/22 01:44:06;;;;;;;12.27;6.80;;;;;;;18.91;67.11;98599.72;7738743;32;39155;-79
2023/10/22 01:48:22;;;;;;;14.55;6.47;;;;;;;18.84;67.38;98594.03;7738367;32;40920;-79
2023/10/22 01:52:38;;;;;;;15.05;6.35;;;;;;;18.82;67.36;98572.28;7738471;32;38715;-78
2023/10/22 01:56:55;;;;;;;15.02;6.35;;;;;;;18.92;66.93;98576.44;7738531;32;38236;-79
2023/10/22 02:01:11;;;;;;;13.80;5.95;;;;;;;18.75;67.28;98570.13;7737508;32;40192;-79
2023/10/22 02:05:32;;;;;;;14.20;5.87;;;;;;;18.84;66.92;98588.50;7738389;32;40013;-79
2023/10/22 02:09:48;;;;;;;13.73;6.00;;;;;;;18.81;66.91;98584.44;7738304;32;37644;-78
2023/10/22 02:14:05;;;;;;;12.10;6.00;;;;;;;18.90;66.75;98593.41;7738439;32;37949;-79
2023/10/22 02:18:21;;;;;;;10.73;5.20;;;;;;;18.75;67.16;98583.91;7738219;32;40184;-79
2023/10/22 02:22:38;;;;;;;16.33;6.35;;;;;;;18.85;67.03;98590.09;7738179;32;39958;-79
2023/10/22 02:26:54;;;;;;;16.15;6.47;;;;;;;18.94;66.54;98599.00;7724193;32;38025;-79
2023/10/22 02:31:10;;;;;;;12.98;6.20;;;;;;;18.96;66.57;98585.63;7738034;32;37176;-79
2023/10/22 02:35:27;;;;;;;12.60;7.03;;;;;;;18.94;66.64;98582.44;7737532;32;40161;-79
2023/10/22 02:39:43;;;;;;;14.27;6.70;;;;;;;18.90;66.53;98573.25;7737778;32;40074;-80
2023/10/22 02:43:59;;;;;;;17.40;6.72;;;;;;;18.97;66.24;98565.12;7737765;32;37971;-79
2023/10/22 02:48:15;;;;;;;14.23;7.18;;;;;;;18.92;66.33;98580.03;7737742;32;37227;-79
2023/10/22 02:52:32;;;;;;;13.05;6.43;;;;;;;18.95;66.31;98582.09;7737783;32;39878;-79
2023/10/22 02:56:48;;;;;;;17.30;7.75;;;;;;;18.79;66.67;98574.94;7737626;32;39758;-79
2023/10/22 03:01:08;;;;;;;18.35;7.72;;;;;;;18.86;66.66;98580.66;7737571;32;37707;-79
2023/10/22 03:05:25;;;;;;;15.48;7.68;;;;;;;18.90;66.30;98576.84;7737572;32;37227;-79
2023/10/22 03:09:41;;;;;;;16.35;7.47;;;;;;;19.00;66.03;98575.47;7737500;32;39379;-79
2023/10/22 03:13:57;;;;;;;15.10;7.25;;;;;;;18.82;66.66;98569.53;7722855;32;40735;-79
2023/10/22 03:18:13;;;;;;;13.00;6.90;;;;;;;18.94;66.11;98571.41;7736999;32;37868;-79
2023/10/22 03:22:33;;;;;;;17.52;7.10;;;;;;;18.86;66.34;98564.88;7737048;32;37118;-79
2023/10/22 03:26:50;;;;;;;15.15;7.47;;;;;;;18.80;66.34;98571.81;7737078;32;40012;-79
2023/10/22 03:31:06;;;;;;;17.25;7.70;;;;;;;18.60;67.03;98578.41;7737056;32;39762;-79
2023/10/22 03:35:23;;;;;;;15.65;7.57;;;;;;;18.52;67.30;98580.97;7736899;32;37837;-79
2023/10/22 03:39:41;;;;;;;14.30;6.85;;;;;;;18.56;67.19;98583.81;7736775;32;37243;-80
2023/10/22 03:43:57;;;;;;;18.35;7.78;;;;;;;18.50;67.47;98588.00;7736679;32;39443;-79
2023/10/22 03:48:13;;;;;;;15.07;7.93;;;;;;;18.58;67.40;98598.06;7736348;32;39951;-80
2023/10/22 03:52:30;;;;;;;12.70;7.10;;;;;;;18.49;67.97;98605.69;7736378;32;38501;-78
2023/10/22 03:56:48;;;;;;;15.63;7.47;;;;;;;18.49;68.08;98619.47;7736278;32;38974;-79
2023/10/22 04:01:04;;;;;;;18.48;7.07;;;;;;;18.45;68.32;98622.16;7736191;32;39136;-79
2023/10/22 04:05:20;;;;;;;15.65;8.43;;;;;;;18.33;68.76;98625.78;7736104;32;39911;-80
2023/10/22 04:09:37;;;;;;;13.00;7.47;;;;;;;18.63;67.86;98633.69;7735912;32;37993;-79
2023/10/22 04:13:54;;;;;;;13.62;7.50;;;;;;;18.56;68.00;98644.53;7735342;32;37273;-78
2023/10/22 04:18:11;;;;;;;14.27;7.45;;;;;;;18.56;68.09;98648.09;7735832;32;39488;-79
2023/10/22 04:22:27;;;;;;;15.98;7.60;;;;;;;18.56;68.06;98650.06;7735534;32;40006;-79
2023/10/22 04:26:43;;;;;;;17.00;7.90;;;;;;;18.25;68.67;98654.31;7738078;32;38030;-79
2023/10/22 04:31:00;;;;;;;13.70;7.35;;;;;;;18.43;68.31;98646.53;7739482;32;37717;-79
2023/10/22 04:35:18;;;;;;;19.80;8.38;;;;;;;18.57;67.98;98652.47;7739824;32;37451;-79
2023/10/22 04:39:34;;;;;;;13.52;7.28;;;;;;;18.51;68.02;98658.59;7725258;32;40171;-80
2023/10/22 04:43:50;;;;;;;15.73;7.87;;;;;;;18.49;68.11;98655.34;7738445;32;38633;-79
2023/10/22 04:48:07;;;;;;;18.60;6.60;;;;;;;18.38;68.52;98666.94;7738769;32;37285;-79
2023/10/22 04:52:33;;;;;;;14.95;7.35;;;;;;;18.47;68.06;98669.53;7739037;32;39380;-80
2023/10/22 04:56:50;;;;;;;13.75;7.35;;;;;;;18.28;68.75;98683.97;7738949;32;40768;-78
2023/10/22 05:01:07;;;;;;;13.65;7.43;;;;;;;18.27;68.82;98690.63;7738691;32;38569;-74
2023/10/22 05:05:23;;;;;;;13.90;6.30;;;;;;;17.26;72.38;98693.03;7738804;32;37222;-80
2023/10/22 05:09:40;;;;;;;14.57;7.10;;;;;;;18.00;69.96;98693.00;7738803;32;39027;-79
2023/10/22 05:13:56;;;;;;;13.38;5.80;;;;;;;17.64;71.26;98700.16;7738548;32;39989;-79
2023/10/22 05:18:14;;;;;;;10.85;4.10;;;;;;;17.60;70.82;98703.94;7724784;32;37806;-78
2023/10/22 05:22:32;;;;;;;8.45;3.87;;;;;;;17.76;69.67;98704.03;7738402;32;37991;-79
2023/10/22 05:26:48;;;;;;;11.55;3.53;;;;;;;17.70;69.39;98708.19;7738309;32;39165;-79
2023/10/22 05:31:15;;;;;;;11.05;4.28;;;;;;;17.78;68.83;98718.28;7738681;32;40851;-79
2023/10/22 05:35:35;;;;;;;9.55;4.20;;;;;;;17.78;68.73;98726.53;7737534;32;38758;-79
2023/10/22 05:39:51;;;;;;;7.82;3.78;;;;;;;17.85;68.54;98737.81;7738628;32;37798;-79
2023/10/22 05:44:09;;;;;;;10.43;4.70;;;;;;;17.96;68.37;98749.19;7724847;32;40021;-80
2023/10/22 05:48:25;;;;;;;11.00;4.40;;;;;;;17.81;69.09;98753.44;7724487;32;39981;-79
2023/10/22 05:52:41;;;;;;;14.10;5.07;;;;;;;17.90;68.90;98765.19;7738366;32;37824;-79
2023/10/22 05:56:57;;;;;;;10.10;4.20;;;;;;;17.85;69.05;98787.44;7738440;32;37809;-79
2023/10/22 06:01:14;;;;;;;9.20;3.87;;;;;;;17.44;71.04;98800.25;7738464;32;39115;-78
2023/10/22 06:05:30;;;;;;;8.75;3.60;;;;;;;16.98;72.24;98829.72;7738391;32;39908;-79
2023/10/22 06:09:48;;;;;;;7.12;3.58;;;;;;;15.98;75.29;98849.47;7738211;32;37874;-81
2023/10/22 06:14:05;;;;;;;7.43;3.55;;;;;;;16.09;75.59;98845.22;7738299;32;37296;-79
2023/10/22 06:18:21;;;;;;;8.15;3.72;;;;;;;16.46;73.11;98850.97;7737953;32;39435;-80
2023/10/22 06:22:37;;;;;;;9.68;4.43;;;;;;;16.03;74.59;98863.03;7737770;32;39996;-79
2023/10/22 06:26:53;;;;;;;8.05;3.47;;;;;;;15.64;75.54;98873.16;7738024;32;38677;-77
2023/10/22 06:31:12;;;;;;;8.00;4.00;;;;;;;15.84;74.77;98879.13;7738268;32;37668;-77
2023/10/22 06:35:29;;;;;;;7.97;4.47;;;;;;;15.83;75.27;98894.78;7737970;32;39200;-78
2023/10/22 06:39:45;;;;;;;7.65;4.03;;;;;;;15.38;77.57;98901.50;7737759;32;40891;-78
2023/10/22 06:44:01;;;;;;;8.40;4.07;;;;;;;15.46;75.71;98912.81;7737856;32;38629;-79
2023/10/22 06:48:18;;;;;;;6.82;3.97;;;;;;;15.39;76.27;98911.34;7737179;32;37679;-78
2023/10/22 06:52:34;;;;;;;6.07;3.80;;;;;;;15.31;75.09;98922.34;7737605;32;39408;-78
2023/10/22 06:56:51;;;;;;;7.57;4.12;;;;;;;15.14;76.39;98923.16;7737546;32;40911;-79
2023/10/22 07:01:10;;;;;;;7.00;4.05;;;;;;;15.65;74.45;98921.47;7737463;32;37971;-79
2023/10/22 07:05:27;;;;;;;8.57;3.80;;;;;;;15.65;73.78;98926.97;7737624;32;37056;-79
2023/10/22 07:09:43;;;;;;;6.60;3.33;;;;;;;15.27;73.92;98948.84;7737367;32;40253;-79
2023/10/22 07:13:59;;;;;;;11.12;3.35;;;;;;;15.40;72.48;98953.34;7736492;32;40008;-79
2023/10/22 07:18:15;;;;;;;6.25;3.33;;;;;;;15.56;72.39;98953.66;7737012;32;38694;-79
2023/10/22 07:22:32;;;;;;;6.50;3.50;;;;;;;15.42;72.53;98966.75;7737105;32;37029;-79
2023/10/22 07:26:48;;;;;;;5.47;3.17;;;;;;;15.15;73.09;98975.00;7737209;32;40085;-79
2023/10/22 07:31:05;;;;;;;3.83;2.78;;;;;;;15.05;71.37;98977.25;7736668;32;40110;-79
2023/10/22 07:35:22;;;;;;;5.00;2.72;;;;;;;15.15;71.19;98977.75;7735686;32;37845;-79
2023/10/22 07:39:38;;;;;;;4.43;2.35;;;;;;;15.09;70.71;98991.94;7736690;32;37132;-78
2023/10/22 07:43:54;;;;;;;4.18;2.62;;;;;;;15.49;68.76;99000.06;7735606;32;39593;-78
2023/10/22 07:48:11;;;;;;;2.87;2.15;;;;;;;15.29;69.33;99013.28;7736353;32;40792;-81
2023/10/22 07:52:29;;;;;;;6.15;2.60;;;;;;;15.66;67.89;99015.69;7733590;32;38115;-80
2023/10/22 07:56:45;;;;;;;5.80;2.30;;;;;;;15.43;68.18;99020.56;7735279;32;37148;-78
2023/10/22 08:01:02;;;;;;;3.17;2.28;;;;;;;15.64;68.26;99024.25;7737911;32;39544;-79
2023/10/22 08:05:19;;;;;;;4.28;2.10;;;;;;;15.70;67.26;99033.97;7739757;32;39612;-79
2023/10/22 08:09:35;;;;;;;2.80;1.95;;;;;;;15.41;68.95;99042.84;7739669;32;37839;-79
2023/10/22 08:13:52;;;;;;;4.72;2.12;;;;;;;15.46;66.67;99050.13;7740774;32;38270;-83
2023/10/22 08:18:09;;;;;;;4.60;1.87;;;;;;;15.49;66.66;99041.25;7739641;32;39914;-83
2023/10/22 08:22:25;;;;;;;2.22;1.73;;;;;;;15.52;66.37;99049.66;7714174;32;40941;-83
2023/10/22 08:26:41;;;;;;;4.12;1.95;;;;;;;15.43;66.35;99057.06;7713074;32;37989;-83
2023/10/22 08:30:59;;;;;;;3.20;1.95;;;;;;;15.88;66.22;99066.97;7712792;32;36896;-83
2023/10/22 08:35:16;;;;;;;2.90;1.50;;;;;;;15.27;67.21;99067.72;7716055;32;39321;-85
2023/10/22 08:39:32;;;;;;;5.57;1.60;;;;;;;15.33;66.46;99082.91;7738812;32;39722;-85
2023/10/22 08:43:49;;;;;;;4.53;1.70;;;;;;;15.55;66.47;99089.41;7738987;32;37796;-82
2023/10/22 08:48:06;;;;;;;3.20;2.00;;;;;;;15.56;65.22;99099.25;7738375;32;37041;-83
2023/10/22 08:52:23;;;;;;;2.33;1.60;;;;;;;15.43;65.65;99103.75;7737948;32;39568;-85
2023/10/22 08:56:41;;;;;;;2.60;1.52;;;;;;;15.52;65.17;99109.25;7738452;32;40025;-84
2023/10/22 09:00:57;;;;;;;4.85;1.87;;;;;;;15.62;65.03;99119.13;7724419;32;37906;-85
2023/10/22 09:05:14;;;;;;;1.73;1.52;;;;;;;15.46;65.82;99116.06;7738466;32;37986;-84
2023/10/22 09:09:35;;;;;;;2.90;1.75;;;;;;;15.32;66.11;99127.97;7738446;32;39170;-83
2023/10/22 09:13:52;;;;;;;2.45;1.80;;;;;;;14.87;65.91;99128.16;7738521;32;40627;-81
2023/10/22 09:18:08;;;;;;;2.25;1.60;;;;;;;15.27;65.41;99133.63;7738512;32;37693;-82
2023/10/22 09:22:26;;;;;;;2.70;1.42;;;;;;;15.72;64.48;99133.38;7738001;32;37803;-81
2023/10/22 09:26:47;;;;;;;2.78;1.70;;;;;;;15.52;63.71;99155.97;7738554;32;39374;-81
2023/10/22 09:31:05;;;;;;;2.72;1.30;;;;;;;15.13;65.28;99149.41;7738782;32;39879;-81
2023/10/22 09:35:22;;;;;;;4.93;1.37;;;;;;;15.49;64.49;99164.88;7737351;32;38721;-81
2023/10/22 09:39:40;;;;;;;3.15;1.52;;;;;;;15.19;65.02;99167.34;7738516;32;37045;-81
2023/10/22 09:44:01;;;;;;;3.37;1.45;;;;;;;15.10;65.50;99174.75;7738679;32;39524;-81
2023/10/22 09:48:17;;;;;;;2.37;1.50;;;;;;;15.15;66.14;99183.66;7738275;32;39929;-82
2023/10/22 09:52:38;;;;;;;1.25;1.15;;;;;;;15.19;65.90;99183.81;7738239;32;37853;-82
2023/10/22 09:57:02;;;;;;;4.03;2.42;;;;;;;15.18;65.71;99187.72;7738279;32;37681;-83
2023/10/22 10:01:19;;;;;;;1.95;1.30;;;;;;;14.99;66.41;99196.97;7738109;32;39612;-80
2023/10/22 10:05:35;;;;;;;2.33;2.00;;;;;;;15.63;65.06;99189.47;7738264;32;40099;-80
2023/10/22 10:09:53;;;;;;;1.30;1.20;;;;;;;15.02;66.70;99206.50;7738156;32;37667;-81
2023/10/22 10:14:36;;;;;;;3.83;1.50;;;;;;;14.65;68.46;99219.56;7724779;32;36956;-81
2023/10/22 10:19:02;;;;;;;1.50;1.40;;;;;;;14.74;68.16;99236.06;7731559;32;40146;-81
2023/10/22 10:23:21;;;;;;;2.65;1.55;;;;;;;15.02;67.87;99223.81;7737186;32;39991;-81
2023/10/22 10:27:50;;;;;;;1.90;1.45;;;;;;;15.06;67.44;99236.91;7737832;32;37685;-79
2023/10/22 10:32:15;;;;;;;3.08;1.90;;;;;;;15.08;66.78;99245.63;7737497;32;37077;-81
2023/10/22 10:36:32;;;;;;;3.12;1.50;;;;;;;15.15;66.53;99259.72;7737826;32;40083;-80
2023/10/22 10:40:54;;;;;;;2.58;1.70;;;;;;;15.02;67.10;99242.19;7737761;32;40962;-80
2023/10/22 10:45:10;;;;;;;1.40;1.30;;;;;;;14.63;68.46;99249.22;7737611;32;38729;-80
2023/10/22 10:49:59;;;;;;;1.62;1.25;;;;;;;15.28;66.06;99256.06;7737466;32;37000;-81
2023/10/22 10:54:17;;;;;;;1.98;1.50;;;;;;;15.58;65.06;99254.41;7737294;32;39813;-80
2023/10/22 10:58:44;;;;;;;1.45;1.30;;;;;;;15.50;65.86;99260.66;7737321;32;39123;-80
2023/10/22 11:03:02;;;;;;;1.55;1.08;;;;;;;15.52;65.64;99254.84;7724234;32;38614;-80
2023/10/22 11:07:19;;;;;;;1.55;1.27;;;;;;;15.19;66.04;99266.19;7737511;32;37143;-81
2023/10/22 11:12:05;;;;;;;1.65;1.12;;;;;;;15.16;64.63;99262.16;7737221;32;39964;-81
2023/10/22 11:16:21;;;;;;;1.83;1.15;;;;;;;15.34;64.08;99268.53;7737150;32;40011;-81
2023/10/22 11:20:38;;;;;;;1.20;1.10;;;;;;;15.35;63.60;99253.69;7737650;32;37868;-80
2023/10/22 11:25:09;;;;;;;1.10;1.00;;;;;;;15.50;63.62;99259.88;7723667;32;37714;-81
2023/10/22 11:29:26;;;;;;;1.15;1.08;;;;;;;15.52;63.43;99272.16;7724616;32;40210;-81
2023/10/22 11:33:42;;;;;;;7.40;1.45;;;;;;;15.66;63.92;99279.47;7737629;32;39774;-80
2023/10/22 11:37:58;;;;;;;1.40;1.12;;;;;;;15.07;64.98;99279.69;7739924;32;37865;-81
2023/10/22 11:42:14;;;;;;;1.33;1.05;;;;;;;15.83;63.54;99270.50;7739980;32;37806;-79
2023/10/22 11:46:41;;;;;;;2.65;1.40;;;;;;;16.26;63.19;99281.56;7739385;32;39468;-80
2023/10/22 11:51:01;;;;;;;2.45;1.12;;;;;;;16.42;61.94;99284.69;7740030;32;40823;-81
2023/10/22 11:55:18;;;;;;;1.33;1.15;;;;;;;16.80;62.53;99284.00;7739442;32;37894;-81
2023/10/22 11:59:50;;;;;;;3.97;1.23;;;;;;;16.95;60.74;99292.91;7739691;32;37952;-81
2023/10/22 12:04:07;;;;;;;4.65;1.40;;;;;;;17.30;59.34;99287.31;7739693;32;39357;-82
2023/10/22 12:08:23;;;;;;;1.77;1.00;;;;;;;17.89;58.45;99287.44;7738660;32;40857;-80
2023/10/22 12:12:40;;;;;;;1.20;1.10;;;;;;;17.80;58.20;99275.63;7739565;32;39005;-80
2023/10/22 12:16:56;;;;;;;1.00;1.00;;;;;;;18.08;55.02;99280.69;7739695;32;37719;-80
2023/10/22 12:21:12;;;;;;;1.77;1.23;;;;;;;18.37;54.74;99279.81;7739634;32;39214;-81
2023/10/22 12:25:31;;;;;;;2.17;1.30;;;;;;;18.82;54.78;99281.06;7739450;32;40938;-82
2023/10/22 12:29:48;;;;;;;1.12;1.02;;;;;;;19.31;53.33;99275.69;7739434;32;37796;-80
2023/10/22 12:34:04;;;;;;;0.90;0.90;;;;;;;19.12;51.85;99279.78;7725757;32;37727;-81
2023/10/22 12:38:20;;;;;;;1.65;1.20;;;;;;;19.10;52.22;99282.09;7739171;32;39410;-81
2023/10/22 12:42:41;;;;;;;3.15;1.37;;;;;;;19.45;52.61;99287.22;7739261;32;40034;-81
2023/10/22 12:46:57;;;;;;;1.20;1.00;;;;;;;19.56;50.90;99284.00;7737829;32;38721;-81
2023/10/22 12:51:13;;;;;;;2.17;1.30;;;;;;;19.55;51.50;99285.19;7738847;32;37211;-81
2023/10/22 12:55:30;;;;;;;3.12;1.55;;;;;;;20.14;48.63;99278.38;7739000;32;39279;-81
2023/10/22 12:59:46;;;;;;;0.90;0.85;;;;;;;19.99;50.17;99288.19;7738931;32;39795;-80
2023/10/22 13:04:03;;;;;;;2.15;0.95;;;;;;;19.62;50.86;99294.50;7739036;32;37860;-80
2023/10/22 13:08:20;;;;;;;1.70;1.00;;;;;;;19.40;50.25;99304.03;7739079;32;37031;-80
2023/10/22 13:12:40;;;;;;;1.48;1.08;;;;;;;20.02;48.38;99310.47;7739098;32;40590;-80
2023/10/22 13:17:13;;;;;;;2.47;0.90;;;;;;;20.20;47.65;99322.06;7738985;32;40900;-81
2023/10/22 13:21:30;;;;;;;1.10;1.00;;;;;;;19.83;49.15;99329.56;7738626;32;37945;-80
2023/10/22 13:25:46;;;;;;;7.43;1.67;;;;;;;19.88;48.97;99338.44;7738861;32;37254;-80
2023/10/22 13:30:03;;;;;;;1.02;1.00;;;;;;;19.48;49.66;99344.59;7738750;32;40039;-80
2023/10/22 13:34:19;;;;;;;1.12;1.00;;;;;;;19.45;49.34;99336.97;7725037;32;40788;-81
2023/10/22 13:38:35;;;;;;;2.35;0.90;;;;;;;19.94;48.47;99324.38;7738590;32;37879;-81
2023/10/22 13:42:52;;;;;;;1.45;1.00;;;;;;;20.25;49.34;99329.34;7738747;32;36891;-80
2023/10/22 13:47:08;;;;;;;2.95;0.98;;;;;;;20.55;47.72;99327.09;7738396;32;39092;-80
2023/10/22 13:51:24;;;;;;;1.27;1.17;;;;;;;20.77;47.42;99327.75;7738439;32;39869;-80
2023/10/22 13:55:41;;;;;;;2.03;0.85;;;;;;;20.34;47.30;99329.22;7724530;32;38830;-81
2023/10/22 13:59:57;;;;;;;2.58;0.82;;;;;;;20.99;45.93;99329.97;7737312;32;37235;-80
2023/10/22 14:04:13;;;;;;;1.27;0.95;;;;;;;20.88;45.41;99337.16;7724304;32;39311;-79
2023/10/22 14:08:30;;;;;;;3.75;1.27;;;;;;;20.68;46.80;99343.69;7737279;32;40728;-78
2023/10/22 14:12:46;;;;;;;0.90;0.82;;;;;;;20.78;44.94;99352.34;7738241;32;37857;-79
2023/10/22 14:17:02;;;;;;;1.23;0.98;;;;;;;21.17;43.67;99343.53;7738302;32;37047;-79
2023/10/22 14:21:20;;;;;;;1.50;0.60;;;;;;;21.23;44.74;99361.50;7737189;32;39440;-80
2023/10/22 14:25:36;;;;;;;1.02;0.70;;;;;;;21.26;44.05;99360.78;7738021;32;40836;-79
2023/10/22 14:29:53;;;;;;;2.00;0.80;;;;;;;21.84;42.70;99345.69;7737904;32;37995;-80
2023/10/22 14:34:09;;;;;;;1.02;0.60;;;;;;;23.00;40.53;99356.25;7738138;32;37058;-80
2023/10/22 14:38:39;;;;;;;0.93;0.82;;;;;;;23.61;37.72;99356.62;7737873;32;40188;-79
2023/10/22 14:42:55;;;;;;;2.25;0.93;;;;;;;25.76;33.54;99358.78;7738064;32;40779;-79
2023/10/22 14:47:12;;;;;;;3.12;1.30;;;;;;;24.82;34.66;99364.50;7737741;32;38704;-80
2023/10/22 14:51:28;;;;;;;3.70;1.35;;;;;;;25.78;33.28;99364.78;7737807;32;37882;-80
2023/10/22 14:55:57;;;;;;;0.95;0.73;;;;;;;27.46;30.64;99364.22;7736886;32;39502;-80
2023/10/22 15:00:13;;;;;;;1.33;0.62;;;;;;;27.00;32.03;99386.41;7737314;32;40902;-82
2023/10/22 15:04:29;;;;;;;1.95;0.50;;;;;;;28.32;29.84;99377.47;7735549;32;37908;-83
2023/10/22 15:08:46;;;;;;;4.57;0.80;;;;;;;28.69;28.81;99381.03;7753999;32;37590;-82
2023/10/22 15:13:02;;;;;;;4.32;0.70;;;;;;;29.13;29.06;99382.47;7749557;32;39864;-82
2023/10/22 15:17:18;;;;;;;1.00;0.40;;;;;;;28.65;29.07;99393.06;7737362;32;40027;-81
2023/10/22 15:21:35;;;;;;;3.00;1.10;;;;;;;28.15;29.57;99395.09;7737090;32;37995;-82
2023/10/22 15:25:52;;;;;;;1.40;0.80;;;;;;;27.07;30.71;99409.62;7737234;32;37012;-81
2023/10/22 15:30:09;;;;;;;1.58;1.10;;;;;;;25.72;33.23;99413.78;7737019;32;39281;-79
2023/10/22 15:34:28;;;;;;;2.83;1.35;;;;;;;24.25;35.96;99423.78;7730841;32;40035;-82
2023/10/22 15:38:47;;;;;;;1.73;1.15;;;;;;;23.24;38.44;99443.34;7735511;32;39411;-81
2023/10/22 15:43:04;;;;;;;2.05;1.10;;;;;;;22.68;40.02;99450.84;7735793;32;37036;-81
2023/10/22 15:47:20;;;;;;;2.35;1.30;;;;;;;22.24;41.13;99461.25;7735767;32;39338;-81
2023/10/22 15:51:36;;;;;;;3.25;1.15;;;;;;;21.67;42.65;99464.16;7734962;32;40789;-81
2023/10/22 15:55:53;;;;;;;3.97;1.20;;;;;;;21.35;43.66;99464.03;7736279;32;38021;-82
2023/10/22 16:00:10;;;;;;;2.70;1.75;;;;;;;20.69;45.63;99469.94;7736271;32;37884;-82
2023/10/22 16:04:26;;;;;;;3.28;1.50;;;;;;;20.49;46.32;99466.94;7736276;32;39546;-81
2023/10/22 16:08:43;;;;;;;3.80;1.40;;;;;;;20.16;47.47;99473.38;7735783;32;39958;-82
2023/10/22 16:13:00;;;;;;;1.62;1.20;;;;;;;19.63;48.70;99484.16;7718628;32;38784;-77
2023/10/22 16:17:16;;;;;;;4.82;1.12;;;;;;;19.54;47.93;99493.66;7734531;32;37035;-78
2023/10/22 16:21:32;;;;;;;3.85;1.92;;;;;;;18.85;49.32;99498.56;7723056;32;39353;-78
2023/10/22 16:25:48;;;;;;;7.32;2.17;;;;;;;18.75;49.21;99511.59;7738764;32;39866;-77
2023/10/22 16:30:05;;;;;;;4.07;2.03;;;;;;;18.50;50.28;99523.56;7711998;32;38675;-78
2023/10/22 16:34:22;;;;;;;4.05;2.15;;;;;;;18.31;50.98;99535.81;7738432;32;36848;-77
2023/10/22 16:38:38;;;;;;;6.12;2.00;;;;;;;18.21;51.41;99533.41;7737803;32;39879;-80
2023/10/22 16:42:57;;;;;;;5.45;1.85;;;;;;;17.92;52.31;99540.47;7738466;32;40736;-78
2023/10/22 16:47:14;;;;;;;1.90;1.48;;;;;;;17.91;52.26;99538.84;7737840;32;38532;-79
2023/10/22 16:51:30;;;;;;;3.70;1.85;;;;;;;17.79;52.64;99544.19;7738819;32;36692;-80
2023/10/22 16:55:47;;;;;;;3.75;1.65;;;;;;;17.69;52.79;99548.06;7738375;32;39318;-80
2023/10/22 17:00:07;;;;;;;2.50;1.50;;;;;;;17.45;53.61;99543.06;7737968;32;39931;-82
2023/10/22 17:04:23;;;;;;;1.92;1.35;;;;;;;17.35;53.75;99546.13;7738467;32;37064;-80
2023/10/22 17:08:46;;;;;;;5.65;2.25;;;;;;;17.31;53.49;99547.91;7738300;32;35131;-81
2023/10/22 17:13:13;;;;;;;6.07;2.33;;;;;;;17.08;53.93;99554.34;7738041;32;39361;-81
2023/10/22 17:17:29;;;;;;;5.25;2.67;;;;;;;16.86;54.54;99565.47;7737771;32;39982;-80
2023/10/22 17:21:48;;;;;;;5.95;2.90;;;;;;;16.71;55.04;99573.03;7738290;32;38467;-79
2023/10/22 17:26:04;;;;;;;7.62;2.60;;;;;;;16.59;56.01;99575.56;7724101;32;36220;-79
2023/10/22 17:30:21;;;;;;;7.50;3.40;;;;;;;16.52;56.26;99583.44;7737503;32;39287;-80
2023/10/22 17:34:39;;;;;;;8.20;2.87;;;;;;;16.44;56.38;99573.22;7729852;32;40145;-79
2023/10/22 17:38:55;;;;;;;7.47;3.30;;;;;;;16.38;56.41;99580.78;7737328;32;38726;-81
2023/10/22 17:43:12;;;;;;;5.78;3.10;;;;;;;16.30;56.71;99589.81;7738164;32;37807;-81
2023/10/22 17:47:28;;;;;;;8.85;3.12;;;;;;;16.26;56.67;99595.13;7737204;32;39173;-81
2023/10/22 17:51:44;;;;;;;9.00;3.28;;;;;;;16.09;57.73;99590.34;7737699;32;40799;-79
2023/10/22 17:56:06;;;;;;;4.85;2.70;;;;;;;15.92;58.04;99591.03;7730912;32;38000;-83
2023/10/22 18:00:25;;;;;;;6.03;3.37;;;;;;;15.96;57.66;99596.72;7736798;32;37137;-81
2023/10/22 18:04:42;;;;;;;4.15;2.17;;;;;;;15.92;57.73;99599.28;7723473;32;39388;-81
2023/10/22 18:08:59;;;;;;;7.15;2.40;;;;;;;15.76;58.01;99609.84;7737436;32;40795;-80
2023/10/22 18:13:15;;;;;;;5.35;2.62;;;;;;;15.70;58.03;99611.03;7734797;32;37849;-81
2023/10/22 18:17:32;;;;;;;4.45;2.58;;;;;;;15.63;58.09;99609.84;7723612;32;37775;-81
2023/10/22 18:21:49;;;;;;;5.00;2.30;;;;;;;15.60;57.87;99605.75;7722616;32;39712;-81
2023/10/22 18:26:06;;;;;;;4.95;2.20;;;;;;;15.49;58.10;99605.19;7723509;32;40961;-81
2023/10/22 18:30:24;;;;;;;5.32;2.47;;;;;;;15.64;57.75;99614.19;7722361;32;38736;-81
2023/10/22 18:34:41;;;;;;;5.05;2.25;;;;;;;15.65;57.34;99613.91;7715536;32;36354;-81
2023/10/22 18:38:57;;;;;;;5.40;1.70;;;;;;;15.49;57.60;99602.44;7724702;32;38970;-81
2023/10/22 18:43:14;;;;;;;6.45;1.60;;;;;;;15.39;57.85;99608.97;7725866;32;40010;-81
2023/10/22 18:47:31;;;;;;;1.55;1.30;;;;;;;15.22;58.37;99600.56;7722331;32;37672;-81
2023/10/22 18:51:47;;;;;;;2.90;1.20;;;;;;;15.00;59.08;99602.13;7724828;32;38282;-81
2023/10/22 18:56:04;;;;;;;3.08;1.40;;;;;;;15.02;59.02;99607.28;7710051;32;39937;-80
2023/10/22 19:00:22;;;;;;;4.70;1.40;;;;;;;14.81;59.51;99604.97;7713040;32;40762;-83
2023/10/22 19:04:38;;;;;;;4.50;2.40;;;;;;;14.63;60.08;99617.63;7735869;32;38680;-80
2023/10/22 19:08:57;;;;;;;3.72;1.90;;;;;;;14.71;59.67;99640.00;7736582;32;37369;-80
2023/10/22 19:13:14;;;;;;;2.85;1.27;;;;;;;14.43;60.12;99631.69;7736246;32;39156;-80
2023/10/22 19:17:31;;;;;;;8.88;1.90;;;;;;;14.47;59.46;99635.47;7730125;32;40006;-80
2023/10/22 19:21:48;;;;;;;6.72;3.40;;;;;;;14.42;59.63;99654.78;7736077;32;38651;-80
2023/10/22 19:26:06;;;;;;;10.65;3.87;;;;;;;14.22;59.91;99661.41;7735568;32;37752;-79
2023/10/22 19:30:24;;;;;;;10.65;3.92;;;;;;;14.38;59.52;99661.94;7709607;32;40292;-80
2023/10/22 19:34:41;;;;;;;6.45;3.25;;;;;;;14.42;59.34;99671.22;7736062;32;39909;-80
2023/10/22 19:38:57;;;;;;;8.60;3.15;;;;;;;14.51;59.04;99663.13;7735327;32;38626;-80
2023/10/22 19:43:13;;;;;;;8.45;3.05;;;;;;;14.20;60.29;99669.91;7735752;32;37010;-80
2023/10/22 19:47:31;;;;;;;4.68;2.47;;;;;;;14.20;60.61;99675.41;7680337;32;40082;-80
2023/10/22 19:51:48;;;;;;;4.03;2.28;;;;;;;14.27;60.36;99675.81;7665371;32;40267;-80
2023/10/22 19:56:12;;;;;;;3.80;2.22;;;;;;;14.24;60.33;99681.91;7668970;32;38536;-79
2023/10/22 20:00:31;;;;;;;2.37;1.60;;;;;;;14.24;60.17;99681.09;7682739;32;36983;-79
2023/10/22 20:04:47;;;;;;;2.85;1.50;;;;;;;14.19;60.27;99684.72;7672261;32;39339;-79
2023/10/22 20:09:04;;;;;;;2.50;1.58;;;;;;;14.04;60.89;99676.78;7678656;32;39745;-79